Time;durP1;ratioP1;P1;durP2;ratioP2;P2;SDS_P1;SDS_P2;PMS_P1;PMS_P2;Temp;Humidity;BMP_temperature;BMP_pressure;BME280_temperature;BME280_humidity;BME280_pressure;Samples;Min_cycle;Max_cycle;Signal;HPM_P1;HPM_P2
2022/12/23 00:00:57;;;;;;;11.73;9.50;;;9.40;66.30;;;;;;4991607;28;20190;-56
2022/12/23 00:03:23;;;;;;;12.17;8.93;;;9.40;60.00;;;;;;4985448;28;20441;-56
2022/12/23 00:05:50;;;;;;;11.70;9.27;;;9.50;37.90;;;;;;4990660;28;20450;-55
2022/12/23 00:08:15;;;;;;;10.80;8.77;;;9.50;35.70;;;;;;4990843;28;20588;-54
2022/12/23 00:10:41;;;;;;;9.03;7.80;;;9.50;19.80;;;;;;4987272;28;21064;-54
2022/12/23 00:16:15;;;;;;;10.10;8.37;;;9.40;2.90;;;;;;4991307;28;20206;-53
2022/12/23 00:18:41;;;;;;;9.67;8.20;;;9.40;7.00;;;;;;4989682;28;20515;-54
2022/12/23 00:21:13;;;;;;;10.07;8.00;;;9.30;10.80;;;;;;4992534;28;20417;-55
2022/12/23 00:23:41;;;;;;;7.70;6.80;;;9.50;4.80;;;;;;4990804;28;20545;-54
2022/12/23 00:26:13;;;;;;;8.80;7.70;;;9.40;1.60;;;;;;4988316;28;20454;-53
2022/12/23 00:28:39;;;;;;;8.57;7.20;;;9.50;2.00;;;;;;4990565;28;21094;-54
2022/12/23 00:31:06;;;;;;;8.07;7.20;;;9.50;2.80;;;;;;4990554;28;20457;-54
2022/12/23 00:33:38;;;;;;;9.00;7.77;;;9.50;1.00;;;;;;4978477;28;20207;-55
2022/12/23 00:36:12;;;;;;;8.63;7.83;;;9.50;1.00;;;;;;4981408;28;20802;-54
2022/12/23 00:44:05;;;;;;;8.97;7.20;;;9.40;1.00;;;;;;4987659;28;20455;-54
2022/12/23 00:46:31;;;;;;;9.53;6.67;;;9.50;1.00;;;;;;4989161;28;20427;-53
2022/12/23 00:51:41;;;;;;;8.37;6.77;;;9.30;1.00;;;;;;4985400;28;20224;-55
2022/12/23 00:54:07;;;;;;;7.20;6.47;;;9.40;1.00;;;;;;4987884;28;20459;-56
2022/12/23 00:56:32;;;;;;;7.93;7.00;;;9.40;1.00;;;;;;4989283;28;20199;-55
2022/12/23 00:58:59;;;;;;;7.07;5.97;;;9.50;1.00;;;;;;4989599;28;20214;-54
2022/12/23 01:06:57;;;;;;;6.57;5.90;;;9.50;1.00;;;;;;4989537;28;20476;-54
2022/12/23 01:09:23;;;;;;;6.33;5.60;;;9.40;1.00;;;;;;4981068;28;20869;-53
2022/12/23 01:11:49;;;;;;;6.40;5.80;;;9.40;1.00;;;;;;4986874;28;20251;-54
2022/12/23 01:14:16;;;;;;;6.87;5.67;;;9.40;1.00;;;;;;4988627;28;20931;-54
2022/12/23 01:16:42;;;;;;;6.57;5.00;;;9.40;1.00;;;;;;4989230;28;20224;-54
2022/12/23 01:19:08;;;;;;;6.00;5.40;;;9.50;1.00;;;;;;4984610;28;20451;-54
2022/12/23 01:21:34;;;;;;;6.90;5.50;;;9.50;1.00;;;;;;4988578;28;20450;-55
2022/12/23 01:24:00;;;;;;;6.03;5.07;;;9.50;1.00;;;;;;4987255;28;20450;-54
2022/12/23 01:26:25;;;;;;;5.97;5.20;;;9.50;1.00;;;;;;4983677;28;20190;-57
2022/12/23 01:28:56;;;;;;;6.00;5.03;;;9.50;1.00;;;;;;4988488;28;20461;-55
2022/12/23 01:31:23;;;;;;;8.53;5.30;;;9.60;1.00;;;;;;4987494;28;20195;-54
2022/12/23 01:33:50;;;;;;;6.43;5.40;;;9.60;1.00;;;;;;4988019;28;20506;-53
2022/12/23 01:36:16;;;;;;;6.00;4.93;;;9.60;1.00;;;;;;4988199;28;21046;-55
2022/12/23 01:38:41;;;;;;;5.37;4.83;;;9.50;1.00;;;;;;4986047;28;20452;-54
2022/12/23 01:41:07;;;;;;;5.40;4.80;;;9.60;1.00;;;;;;4987023;28;20464;-55
2022/12/23 01:43:50;;;;;;;5.47;4.97;;;9.60;1.00;;;;;;4986022;28;21088;-53
2022/12/23 01:46:16;;;;;;;6.03;5.43;;;9.60;1.00;;;;;;4978038;28;20218;-53
2022/12/23 01:48:50;;;;;;;8.87;6.27;;;9.70;1.00;;;;;;4989166;28;20508;-55
2022/12/23 01:51:24;;;;;;;7.47;4.73;;;9.70;1.00;;;;;;4988439;28;20456;-54
2022/12/23 01:53:54;;;;;;;7.70;5.37;;;9.70;1.00;;;;;;4987691;28;20419;-55
2022/12/23 01:56:39;;;;;;;6.23;4.97;;;9.60;1.00;;;;;;4985961;28;20544;-55
2022/12/23 02:03:40;;;;;;;5.67;4.40;;;9.60;1.00;;;;;;4990772;28;20477;-53
2022/12/23 02:04:45;;;;;;;6.23;4.90;;;9.60;1.00;;;;;;4985582;28;20505;-54
2022/12/23 02:09:56;;;;;;;7.57;4.87;;;9.60;1.00;;;;;;4986918;28;20615;-53
2022/12/23 02:12:48;;;;;;;5.27;4.43;;;9.50;1.00;;;;;;4992527;28;20922;-55
2022/12/23 02:18:25;;;;;;;5.30;4.37;;;9.60;1.00;;;;;;4988811;28;20449;-55
2022/12/23 02:20:59;;;;;;;7.23;4.30;;;9.60;1.00;;;;;;4981042;28;20549;-54
2022/12/23 02:23:43;;;;;;;7.03;4.90;;;9.70;1.00;;;;;;4988367;28;20474;-54
2022/12/23 02:26:39;;;;;;;6.37;4.40;;;9.80;1.00;;;;;;4986669;28;20420;-56
2022/12/23 02:29:27;;;;;;;4.30;4.00;;;9.70;1.00;;;;;;4985578;28;20966;-57
2022/12/23 02:31:55;;;;;;;5.00;3.70;;;9.60;1.00;;;;;;4984310;28;20604;-55
2022/12/23 02:34:44;;;;;;;4.50;4.00;;;9.70;1.00;;;;;;4978289;28;20441;-54
2022/12/23 02:37:33;;;;;;;6.83;4.10;;;9.60;1.00;;;;;;4983831;28;20443;-54
2022/12/23 02:40:04;;;;;;;7.77;4.13;;;9.70;1.00;;;;;;4939683;28;20466;-55
2022/12/23 02:42:37;;;;;;;5.13;4.63;;;9.70;1.00;;;;;;4985315;28;20831;-56
2022/12/23 02:45:12;;;;;;;5.90;4.57;;;9.70;1.00;;;;;;4988095;28;20454;-55
2022/12/23 02:47:43;;;;;;;4.47;3.53;;;9.70;1.00;;;;;;4983617;28;20552;-54
2022/12/23 02:50:15;;;;;;;6.60;4.23;;;9.60;1.00;;;;;;4983315;28;20840;-54
2022/12/23 02:52:43;;;;;;;4.50;3.77;;;9.70;1.00;;;;;;4985431;28;20455;-55
2022/12/23 02:55:13;;;;;;;4.33;3.60;;;9.80;1.00;;;;;;4993311;28;20511;-54
2022/12/23 02:57:44;;;;;;;6.07;3.60;;;9.70;1.00;;;;;;4983770;28;20540;-56
2022/12/23 03:00:11;;;;;;;4.73;3.87;;;9.70;1.00;;;;;;4987456;28;20519;-55
2022/12/23 03:02:39;;;;;;;4.00;3.60;;;9.80;1.00;;;;;;4985327;28;20828;-55
2022/12/23 03:05:05;;;;;;;7.47;3.60;;;9.90;1.00;;;;;;4983074;28;20459;-54
2022/12/23 03:07:37;;;;;;;5.40;3.10;;;9.90;1.00;;;;;;4992107;28;20458;-55
2022/12/23 03:10:24;;;;;;;6.40;3.47;;;9.80;1.00;;;;;;4991955;28;20435;-56
2022/12/23 03:12:58;;;;;;;4.47;3.37;;;9.90;1.00;;;;;;4987392;28;20446;-56
2022/12/23 03:15:40;;;;;;;5.67;3.40;;;9.80;1.00;;;;;;4991765;28;20425;-55
2022/12/23 03:18:27;;;;;;;3.93;3.17;;;9.80;1.00;;;;;;4990607;28;20448;-55
2022/12/23 03:21:09;;;;;;;3.93;2.90;;;9.90;1.00;;;;;;4989126;28;20456;-54
2022/12/23 03:23:42;;;;;;;3.20;2.87;;;9.90;1.00;;;;;;4987456;28;20423;-53
2022/12/23 03:26:17;;;;;;;5.30;2.80;;;9.90;1.00;;;;;;4990652;28;20545;-55
2022/12/23 03:28:57;;;;;;;4.20;2.70;;;9.90;1.00;;;;;;4989831;28;20431;-54
2022/12/23 03:31:26;;;;;;;5.70;3.00;;;9.90;1.00;;;;;;4986805;28;20466;-55
2022/12/23 03:34:07;;;;;;;3.73;2.70;;;10.40;1.00;;;;;;4990262;28;20990;-54
2022/12/23 03:36:41;;;;;;;5.40;3.20;;;10.00;1.00;;;;;;4990629;28;20432;-53
2022/12/23 03:39:12;;;;;;;2.63;2.43;;;10.00;1.00;;;;;;4984847;28;20468;-54
2022/12/23 03:41:42;;;;;;;3.97;2.63;;;10.00;1.00;;;;;;4988336;28;20453;-53
2022/12/23 03:44:31;;;;;;;5.37;2.53;;;10.00;1.00;;;;;;4989383;28;20416;-53
2022/12/23 03:47:13;;;;;;;3.40;2.40;;;10.00;1.00;;;;;;4990369;28;20785;-54
2022/12/23 03:49:45;;;;;;;4.90;2.20;;;10.10;1.00;;;;;;4987852;28;20576;-55
2022/12/23 03:52:14;;;;;;;2.87;2.60;;;10.10;1.00;;;;;;4988026;28;20526;-56
2022/12/23 03:54:50;;;;;;;4.00;2.70;;;10.00;1.00;;;;;;4988578;28;20817;-55
2022/12/23 03:57:18;;;;;;;4.40;2.53;;;10.10;1.00;;;;;;4986377;28;20474;-54
2022/12/23 03:59:49;;;;;;;3.20;2.03;;;10.00;1.00;;;;;;4987544;28;20831;-53
2022/12/23 04:02:32;;;;;;;2.77;2.13;;;10.00;1.00;;;;;;4987446;28;20455;-54
2022/12/23 04:05:15;;;;;;;4.13;1.83;;;10.10;1.00;;;;;;4989814;28;20456;-55
2022/12/23 04:08:02;;;;;;;4.00;2.40;;;10.10;1.00;;;;;;4989026;28;20546;-56
2022/12/23 04:10:29;;;;;;;7.93;2.33;;;10.10;1.00;;;;;;4993775;28;20432;-54
2022/12/23 04:12:55;;;;;;;4.43;1.80;;;10.10;1.00;;;;;;4999633;28;20432;-54
2022/12/23 04:15:23;;;;;;;4.87;2.40;;;10.30;1.00;;;;;;4999577;28;20482;-55
2022/12/23 04:17:50;;;;;;;3.23;2.27;;;10.20;1.00;;;;;;4985608;28;20933;-55
2022/12/23 04:20:16;;;;;;;3.93;2.37;;;10.20;1.00;;;;;;4990122;28;20501;-54
2022/12/23 04:22:42;;;;;;;2.93;2.63;;;10.30;1.00;;;;;;4991572;28;20508;-54
2022/12/23 04:25:09;;;;;;;2.40;2.10;;;10.20;1.00;;;;;;4986858;28;20421;-54
2022/12/23 04:27:35;;;;;;;1.67;1.57;;;10.40;1.00;;;;;;4989032;28;20428;-54
2022/12/23 04:30:01;;;;;;;4.77;2.00;;;10.40;1.00;;;;;;4983126;28;20464;-55
2022/12/23 04:32:27;;;;;;;3.80;2.20;;;10.40;1.00;;;;;;4984270;28;20194;-54
2022/12/23 04:34:52;;;;;;;2.97;1.83;;;10.30;1.00;;;;;;4986108;28;20250;-54
2022/12/23 04:37:18;;;;;;;3.97;2.30;;;10.30;1.00;;;;;;4987702;28;20195;-54
2022/12/23 04:39:43;;;;;;;2.50;1.30;;;10.30;1.00;;;;;;4988758;28;20214;-54
2022/12/23 04:42:09;;;;;;;1.10;0.77;;;10.50;1.00;;;;;;4987935;28;20225;-54
2022/12/23 04:44:35;;;;;;;1.17;0.70;;;10.60;1.00;;;;;;4983373;28;20275;-54
2022/12/23 04:47:00;;;;;;;0.93;0.70;;;10.80;1.00;;;;;;4986386;28;20509;-55
2022/12/23 04:49:26;;;;;;;0.60;0.53;;;10.80;1.00;;;;;;4984485;28;20226;-54
2022/12/23 04:51:52;;;;;;;0.67;0.60;;;10.90;1.00;;;;;;4983890;28;20199;-54
2022/12/23 04:54:17;;;;;;;0.90;0.50;;;10.90;1.00;;;;;;4992359;28;20262;-54
2022/12/23 04:56:43;;;;;;;0.87;0.67;;;11.00;1.00;;;;;;4987832;28;20187;-55
2022/12/23 04:59:09;;;;;;;0.70;0.50;;;11.00;1.00;;;;;;4985958;28;20751;-54
2022/12/23 05:01:35;;;;;;;0.97;0.60;;;11.20;1.00;;;;;;4980457;28;20206;-54
2022/12/23 05:04:00;;;;;;;1.00;0.87;;;11.10;1.00;;;;;;4984678;28;20438;-54
2022/12/23 05:06:26;;;;;;;1.10;0.97;;;11.10;1.00;;;;;;4989656;28;20175;-54
2022/12/23 05:08:51;;;;;;;1.10;0.53;;;11.10;1.00;;;;;;4991500;28;20195;-53
2022/12/23 05:11:17;;;;;;;2.57;0.67;;;11.10;1.00;;;;;;4987480;28;20184;-53
2022/12/23 05:13:43;;;;;;;1.07;0.80;;;11.20;1.00;;;;;;4985870;28;20207;-55
2022/12/23 05:16:08;;;;;;;0.90;0.70;;;11.20;1.00;;;;;;4988779;28;20187;-54
2022/12/23 05:18:34;;;;;;;1.60;0.57;;;11.40;1.00;;;;;;4988138;28;20679;-54
2022/12/23 05:20:59;;;;;;;1.80;0.70;;;11.60;1.00;;;;;;4989619;28;20182;-55
2022/12/23 05:23:25;;;;;;;0.50;0.50;;;11.70;1.00;;;;;;4986180;28;20196;-56
2022/12/23 05:25:52;;;;;;;0.80;0.53;;;11.80;1.00;;;;;;4990923;28;20191;-55
2022/12/23 05:28:18;;;;;;;1.13;0.70;;;11.90;1.00;;;;;;4985534;28;20195;-54
2022/12/23 05:30:43;;;;;;;0.60;0.50;;;11.80;1.00;;;;;;4987187;28;20928;-54
2022/12/23 05:33:09;;;;;;;0.53;0.47;;;11.90;1.00;;;;;;4989063;28;20206;-55
2022/12/23 05:35:34;;;;;;;1.07;0.60;;;11.90;1.00;;;;;;4989487;28;20194;-55
2022/12/23 05:38:02;;;;;;;0.83;0.60;;;11.90;1.00;;;;;;4987078;28;20206;-54
2022/12/23 05:40:28;;;;;;;1.23;0.80;;;12.00;1.00;;;;;;4989720;28;20297;-57
2022/12/23 05:42:53;;;;;;;1.47;0.73;;;11.90;1.00;;;;;;4986068;28;20473;-55
2022/12/23 05:45:19;;;;;;;1.10;0.63;;;11.90;1.00;;;;;;4987489;28;20451;-55
2022/12/23 05:47:45;;;;;;;0.60;0.50;;;11.90;1.00;;;;;;4986313;28;20218;-53
2022/12/23 05:50:11;;;;;;;2.80;0.73;;;12.00;1.00;;;;;;4970095;28;20211;-54
2022/12/23 05:52:36;;;;;;;0.60;0.50;;;11.90;1.00;;;;;;4970350;28;20210;-53
2022/12/23 05:55:03;;;;;;;2.63;2.33;;;12.00;1.00;;;;;;4966213;28;20191;-54
2022/12/23 05:57:29;;;;;;;1.60;0.80;;;12.00;1.00;;;;;;4970341;28;20294;-55
2022/12/23 05:59:54;;;;;;;1.40;0.83;;;12.00;1.00;;;;;;4968698;28;20559;-54
2022/12/23 06:02:20;;;;;;;1.83;1.00;;;12.00;1.00;;;;;;4969150;28;20536;-55
2022/12/23 06:04:46;;;;;;;0.90;0.60;;;12.00;1.00;;;;;;4964311;28;20693;-54
2022/12/23 06:07:12;;;;;;;0.60;0.40;;;12.00;1.00;;;;;;4968209;28;20454;-54
2022/12/23 06:09:38;;;;;;;0.80;0.60;;;12.00;1.00;;;;;;4968362;28;21000;-55
2022/12/23 06:12:03;;;;;;;0.70;0.50;;;12.00;1.00;;;;;;4965020;28;20310;-54
2022/12/23 06:14:29;;;;;;;0.50;0.30;;;11.90;1.00;;;;;;4970064;28;20200;-54
2022/12/23 06:16:55;;;;;;;0.60;0.50;;;11.90;1.00;;;;;;4967436;28;20199;-55
2022/12/23 06:19:20;;;;;;;0.73;0.50;;;11.90;1.00;;;;;;4969573;28;20239;-54
2022/12/23 06:21:46;;;;;;;0.57;0.53;;;11.90;1.00;;;;;;4968343;28;20265;-55
2022/12/23 06:24:11;;;;;;;1.03;0.57;;;12.00;1.00;;;;;;4967575;28;20658;-54
2022/12/23 06:26:37;;;;;;;0.73;0.43;;;12.00;1.00;;;;;;4968288;28;20230;-54
2022/12/23 06:29:03;;;;;;;1.13;0.57;;;12.00;1.00;;;;;;4968555;28;20199;-54
2022/12/23 06:31:28;;;;;;;1.23;0.60;;;12.00;1.00;;;;;;4969836;28;20238;-54
2022/12/23 06:33:54;;;;;;;1.60;0.70;;;12.00;1.00;;;;;;4966710;28;20465;-54
2022/12/23 06:36:20;;;;;;;0.63;0.40;;;12.00;1.00;;;;;;4972759;28;20202;-54
2022/12/23 06:38:45;;;;;;;2.97;1.20;;;12.00;1.00;;;;;;4970631;28;20233;-54
2022/12/23 06:41:11;;;;;;;3.67;2.43;;;12.00;1.00;;;;;;4968683;28;20194;-55
2022/12/23 06:43:37;;;;;;;1.80;1.37;;;12.00;1.00;;;;;;4967139;28;20199;-54
2022/12/23 06:46:03;;;;;;;1.37;0.60;;;12.00;1.00;;;;;;4968353;28;20941;-54
2022/12/23 06:48:28;;;;;;;0.63;0.60;;;12.00;1.00;;;;;;4975986;28;20222;-55
2022/12/23 06:50:54;;;;;;;1.37;1.17;;;12.10;1.00;;;;;;4985636;28;20272;-55
2022/12/23 06:53:20;;;;;;;0.60;0.50;;;12.00;1.00;;;;;;4987911;28;20533;-55
2022/12/23 06:55:45;;;;;;;0.77;0.77;;;12.10;1.00;;;;;;4987613;28;20592;-53
2022/12/23 06:58:11;;;;;;;0.90;0.80;;;12.00;1.00;;;;;;4987994;28;20182;-56
2022/12/23 07:00:36;;;;;;;0.70;0.60;;;12.00;1.00;;;;;;4986926;28;20700;-54
2022/12/23 07:03:02;;;;;;;1.53;0.70;;;11.90;1.00;;;;;;4987625;28;20187;-56
2022/12/23 07:05:28;;;;;;;2.43;1.27;;;11.90;1.00;;;;;;4990051;28;20184;-55
2022/12/23 07:07:53;;;;;;;0.60;0.60;;;11.80;1.00;;;;;;4985056;28;20674;-54
2022/12/23 07:10:19;;;;;;;0.93;0.40;;;11.80;1.00;;;;;;4985102;28;20192;-55
2022/12/23 07:12:45;;;;;;;0.70;0.60;;;11.80;1.00;;;;;;4987035;28;20577;-54
2022/12/23 07:15:10;;;;;;;3.20;1.20;;;11.80;1.00;;;;;;4987595;28;20191;-55
2022/12/23 07:17:36;;;;;;;1.80;0.80;;;11.70;1.00;;;;;;4986309;28;21031;-54
2022/12/23 07:20:05;;;;;;;1.10;0.90;;;11.60;1.00;;;;;;4987966;28;20815;-57
2022/12/23 07:22:31;;;;;;;0.70;0.50;;;11.70;1.00;;;;;;4987238;28;20278;-55
2022/12/23 07:24:56;;;;;;;2.30;0.70;;;11.80;1.00;;;;;;4989577;28;20582;-55
2022/12/23 07:27:22;;;;;;;0.80;0.80;;;11.80;1.00;;;;;;4986763;28;20194;-54
2022/12/23 07:29:47;;;;;;;0.87;0.60;;;11.90;1.00;;;;;;4987551;28;20220;-54
2022/12/23 07:32:13;;;;;;;1.20;0.80;;;11.80;1.00;;;;;;4989536;28;20205;-55
2022/12/23 07:34:38;;;;;;;1.23;0.60;;;11.80;1.00;;;;;;4985416;28;20217;-56
2022/12/23 07:37:04;;;;;;;2.43;1.10;;;11.90;1.00;;;;;;4986056;28;20219;-54
2022/12/23 07:39:30;;;;;;;1.57;0.80;;;11.90;1.00;;;;;;4984940;28;20211;-55
2022/12/23 07:41:55;;;;;;;0.90;0.63;;;11.90;1.00;;;;;;4987346;28;20522;-55
2022/12/23 07:44:21;;;;;;;1.50;0.80;;;11.80;1.00;;;;;;4986624;28;20203;-55
2022/12/23 07:46:46;;;;;;;1.00;0.90;;;11.70;1.00;;;;;;4987077;28;20232;-54
2022/12/23 07:49:12;;;;;;;1.20;0.60;;;11.80;1.00;;;;;;4985958;28;20237;-54
2022/12/23 07:51:38;;;;;;;1.30;0.70;;;11.90;1.00;;;;;;4988689;28;21036;-55
2022/12/23 07:54:03;;;;;;;1.80;0.90;;;11.70;1.00;;;;;;4991199;28;20245;-55
2022/12/23 07:56:29;;;;;;;1.67;0.80;;;11.60;1.00;;;;;;4991625;28;20357;-54
2022/12/23 07:58:54;;;;;;;3.00;0.80;;;11.70;1.00;;;;;;4988424;28;20211;-54
2022/12/23 08:01:21;;;;;;;1.37;1.10;;;11.60;1.00;;;;;;4988745;28;20191;-56
2022/12/23 08:03:47;;;;;;;1.20;0.83;;;11.60;1.00;;;;;;4988629;28;20190;-55
2022/12/23 08:06:14;;;;;;;0.83;0.80;;;11.60;1.00;;;;;;4992545;28;20442;-56
2022/12/23 08:08:43;;;;;;;2.53;0.90;;;11.70;1.00;;;;;;4983743;28;20916;-54
2022/12/23 08:11:10;;;;;;;1.37;1.07;;;11.70;1.00;;;;;;4991786;28;20428;-54
2022/12/23 08:13:38;;;;;;;1.67;1.27;;;11.60;1.00;;;;;;4989805;28;20477;-55
2022/12/23 08:16:05;;;;;;;2.43;1.33;;;11.60;1.00;;;;;;4991659;28;20431;-55
2022/12/23 08:18:33;;;;;;;1.30;0.70;;;11.80;1.00;;;;;;4988273;28;20593;-55
2022/12/23 08:21:02;;;;;;;1.03;0.90;;;11.80;1.00;;;;;;4988921;28;20548;-53
2022/12/23 08:23:29;;;;;;;1.60;0.90;;;11.80;1.00;;;;;;4990496;28;20499;-55
2022/12/23 08:26:09;;;;;;;0.60;0.60;;;11.90;1.00;;;;;;4992378;28;20420;-54
2022/12/23 08:28:37;;;;;;;1.50;1.00;;;12.10;1.00;;;;;;4989560;28;20482;-53
2022/12/23 08:31:06;;;;;;;1.67;1.10;;;12.10;1.00;;;;;;4991701;28;20986;-55
2022/12/23 08:33:33;;;;;;;1.10;0.77;;;12.10;1.00;;;;;;4988710;28;20436;-54
2022/12/23 08:35:59;;;;;;;0.97;0.90;;;12.10;1.00;;;;;;4992385;28;20953;-55
2022/12/23 08:38:25;;;;;;;1.83;1.40;;;12.20;1.00;;;;;;4990220;28;20431;-54
2022/12/23 08:40:50;;;;;;;1.20;0.80;;;12.10;1.00;;;;;;4992043;28;20533;-55
2022/12/23 08:43:16;;;;;;;3.93;1.97;;;12.20;1.00;;;;;;4989540;28;20193;-55
2022/12/23 08:45:42;;;;;;;0.83;0.70;;;12.40;1.00;;;;;;4992218;28;20183;-54
2022/12/23 08:48:07;;;;;;;0.67;0.60;;;12.30;1.00;;;;;;4990485;28;20229;-54
2022/12/23 08:50:41;;;;;;;0.93;0.77;;;12.40;1.00;;;;;;4991333;28;20184;-55
2022/12/23 08:53:07;;;;;;;1.10;0.80;;;12.30;1.00;;;;;;4987776;28;20189;-55
2022/12/23 08:55:38;;;;;;;1.27;0.67;;;12.30;1.00;;;;;;4991912;28;20415;-55
2022/12/23 08:58:04;;;;;;;1.10;0.70;;;12.30;1.00;;;;;;4989980;28;20604;-54
2022/12/23 09:00:30;;;;;;;1.03;0.70;;;12.30;1.00;;;;;;4989270;28;20456;-54
2022/12/23 09:02:55;;;;;;;1.30;0.77;;;12.30;1.00;;;;;;4988574;28;20432;-54
2022/12/23 09:05:21;;;;;;;1.63;0.80;;;12.30;1.00;;;;;;4991693;28;20193;-54
2022/12/23 09:07:46;;;;;;;0.47;0.43;;;12.20;1.00;;;;;;4990643;28;20274;-53
2022/12/23 09:10:12;;;;;;;0.50;0.50;;;12.40;1.00;;;;;;4987893;28;20200;-56
2022/12/23 09:12:38;;;;;;;1.73;0.60;;;12.40;1.00;;;;;;4990388;28;20249;-54
2022/12/23 09:15:04;;;;;;;0.77;0.60;;;12.30;1.00;;;;;;4993660;28;20194;-57
2022/12/23 09:17:29;;;;;;;1.07;0.60;;;12.20;1.00;;;;;;4991172;28;20597;-55
2022/12/23 09:19:55;;;;;;;1.00;0.80;;;12.30;1.00;;;;;;4991206;28;20546;-54
2022/12/23 09:22:20;;;;;;;0.70;0.60;;;12.20;1.00;;;;;;4991232;28;20648;-54
2022/12/23 09:24:46;;;;;;;1.37;0.90;;;12.30;1.00;;;;;;4991495;28;20190;-55
2022/12/23 09:27:11;;;;;;;0.90;0.60;;;12.20;1.00;;;;;;4990527;28;20585;-55
2022/12/23 09:29:37;;;;;;;1.03;0.70;;;12.20;1.00;;;;;;4990721;28;20195;-55
2022/12/23 09:32:03;;;;;;;1.07;0.97;;;12.20;1.00;;;;;;4988889;28;20191;-54
2022/12/23 09:34:28;;;;;;;1.20;1.07;;;12.30;1.00;;;;;;4987224;28;20198;-53
2022/12/23 09:36:54;;;;;;;2.20;1.00;;;12.30;1.00;;;;;;5003539;28;20879;-54
2022/12/23 09:39:20;;;;;;;1.23;0.90;;;12.40;1.00;;;;;;4990942;28;20207;-55
2022/12/23 09:42:00;;;;;;;1.40;0.70;;;12.30;1.00;;;;;;4987911;28;20184;-54
2022/12/23 09:44:43;;;;;;;1.63;0.90;;;12.30;1.00;;;;;;4989937;28;20181;-55
2022/12/23 09:47:14;;;;;;;1.30;1.07;;;12.40;1.00;;;;;;4989954;28;20434;-54
2022/12/23 09:49:47;;;;;;;3.77;1.43;;;12.40;1.00;;;;;;4989702;28;20480;-54
2022/12/23 09:52:21;;;;;;;1.63;0.93;;;12.50;1.00;;;;;;4956349;28;20425;-54
2022/12/23 09:54:51;;;;;;;1.33;1.20;;;12.50;1.00;;;;;;5006004;28;20449;-55
2022/12/23 09:57:20;;;;;;;5.03;1.10;;;12.50;1.00;;;;;;5010241;28;20955;-56
2022/12/23 10:00:08;;;;;;;1.60;0.97;;;12.60;1.00;;;;;;4997800;28;20501;-56
2022/12/23 10:02:52;;;;;;;3.27;1.00;;;12.50;1.00;;;;;;4990549;28;20492;-55
2022/12/23 10:05:59;;;;;;;4.70;0.80;;;12.50;1.00;;;;;;4988606;28;20503;-55
2022/12/23 10:08:28;;;;;;;1.90;0.90;;;12.50;1.00;;;;;;4989902;28;20436;-56
2022/12/23 10:11:05;;;;;;;1.53;1.00;;;12.70;1.00;;;;;;4989070;28;20420;-58
2022/12/23 10:13:40;;;;;;;1.27;1.10;;;12.80;1.00;;;;;;4990034;28;20408;-56
2022/12/23 10:16:11;;;;;;;1.93;0.73;;;12.90;1.00;;;;;;4999961;28;20510;-54
2022/12/23 10:18:56;;;;;;;2.13;1.00;;;12.90;1.00;;;;;;5001010;28;21049;-55
2022/12/23 10:21:45;;;;;;;1.20;1.10;;;12.90;1.00;;;;;;5000469;28;20446;-55
2022/12/23 10:24:37;;;;;;;1.40;1.20;;;12.80;1.00;;;;;;4990125;28;20450;-52
2022/12/23 10:27:21;;;;;;;0.97;0.83;;;12.80;1.00;;;;;;4983701;28;20528;-51
2022/12/23 10:29:47;;;;;;;1.80;0.87;;;12.70;1.00;;;;;;4998375;28;20910;-56
2022/12/23 10:32:50;;;;;;;1.23;1.00;;;12.80;1.00;;;;;;4992131;28;20456;-53
2022/12/23 10:35:38;;;;;;;1.23;0.90;;;12.80;1.00;;;;;;4994979;28;20640;-57
2022/12/23 10:38:35;;;;;;;3.70;2.27;;;12.80;1.00;;;;;;4998914;28;20511;-53
2022/12/23 10:41:13;;;;;;;1.40;1.13;;;12.90;1.00;;;;;;4999026;28;20437;-54
2022/12/23 10:44:19;;;;;;;1.53;1.17;;;12.90;1.00;;;;;;5002464;28;20464;-52
2022/12/23 10:46:59;;;;;;;2.67;1.47;;;13.00;1.00;;;;;;5001761;28;20512;-53
2022/12/23 10:49:44;;;;;;;1.47;1.10;;;12.90;1.00;;;;;;4997709;28;20491;-55
2022/12/23 10:52:24;;;;;;;1.23;0.80;;;13.00;1.00;;;;;;4999039;28;20405;-56
2022/12/23 10:54:50;;;;;;;1.00;0.87;;;12.90;1.00;;;;;;5004407;28;20490;-55
2022/12/23 10:57:18;;;;;;;1.00;1.00;;;13.00;1.00;;;;;;5004316;28;20412;-53
2022/12/23 10:59:44;;;;;;;1.50;1.10;;;12.90;1.00;;;;;;4991938;28;20468;-53
2022/12/23 11:02:12;;;;;;;2.10;1.10;;;13.00;1.00;;;;;;4997103;28;20474;-53
2022/12/23 11:04:44;;;;;;;1.27;1.17;;;13.00;1.00;;;;;;4996014;28;20445;-52
2022/12/23 11:07:26;;;;;;;1.20;1.00;;;12.90;1.00;;;;;;4992685;28;20441;-54
2022/12/23 11:09:57;;;;;;;1.57;1.47;;;12.90;1.00;;;;;;5000005;28;20423;-53
2022/12/23 11:12:34;;;;;;;0.80;0.80;;;12.90;1.00;;;;;;4983208;28;20524;-54
2022/12/23 11:15:00;;;;;;;1.20;1.00;;;12.90;1.00;;;;;;4998655;28;20433;-55
2022/12/23 11:17:32;;;;;;;1.57;1.33;;;12.80;1.00;;;;;;4999550;28;20902;-55
2022/12/23 11:20:09;;;;;;;2.03;1.37;;;12.80;1.00;;;;;;4995572;28;20944;-56
2022/12/23 11:23:01;;;;;;;1.40;1.30;;;12.80;1.00;;;;;;5000813;28;21026;-53
2022/12/23 11:25:41;;;;;;;1.10;1.00;;;12.80;1.00;;;;;;5000375;28;20552;-56
2022/12/23 11:28:15;;;;;;;1.27;1.17;;;12.80;1.00;;;;;;5000038;28;20459;-55
2022/12/23 11:31:04;;;;;;;1.77;1.40;;;12.80;1.00;;;;;;5004606;28;20470;-54
2022/12/23 11:33:47;;;;;;;1.63;1.20;;;12.90;1.00;;;;;;5007574;28;20492;-53
2022/12/23 11:36:15;;;;;;;7.60;1.33;;;13.00;1.00;;;;;;5002211;28;20445;-52
2022/12/23 11:38:52;;;;;;;1.20;1.10;;;12.90;1.00;;;;;;4999383;28;20462;-52
2022/12/23 11:41:24;;;;;;;2.40;1.30;;;12.80;1.00;;;;;;5001949;28;20404;-54
2022/12/23 11:44:03;;;;;;;4.50;1.40;;;12.90;1.00;;;;;;5003889;28;20405;-51
2022/12/23 11:46:31;;;;;;;1.10;1.00;;;13.10;1.00;;;;;;5001398;28;20504;-53
2022/12/23 11:49:16;;;;;;;2.93;1.70;;;13.10;1.00;;;;;;5002712;28;20843;-56
2022/12/23 11:51:43;;;;;;;1.50;1.40;;;13.10;1.00;;;;;;5001380;28;20449;-52
2022/12/23 11:54:18;;;;;;;1.77;1.10;;;13.10;1.00;;;;;;5005674;28;20419;-52
2022/12/23 11:56:46;;;;;;;1.53;1.20;;;13.10;1.00;;;;;;5005568;28;20449;-53
2022/12/23 11:59:31;;;;;;;3.30;1.33;;;13.30;1.00;;;;;;4997650;28;20452;-51
2022/12/23 12:02:24;;;;;;;1.87;1.37;;;13.30;1.00;;;;;;5004687;28;20443;-53
2022/12/23 12:04:57;;;;;;;1.43;1.27;;;13.40;1.00;;;;;;4985004;28;20454;-53
2022/12/23 12:07:24;;;;;;;1.63;1.30;;;13.40;1.00;;;;;;5000899;28;20412;-53
2022/12/23 12:09:50;;;;;;;1.70;1.10;;;13.40;1.00;;;;;;4994515;28;20489;-52
2022/12/23 12:12:19;;;;;;;2.40;1.40;;;13.20;1.00;;;;;;5004393;28;20942;-52
2022/12/23 12:14:53;;;;;;;3.33;1.77;;;13.10;1.00;;;;;;5001701;28;20952;-54
2022/12/23 12:17:21;;;;;;;1.37;0.90;;;13.20;1.00;;;;;;4997897;28;20447;-51
2022/12/23 12:20:16;;;;;;;2.20;1.90;;;13.30;1.00;;;;;;5006460;28;20548;-56
2022/12/23 12:22:47;;;;;;;1.20;1.03;;;13.40;1.00;;;;;;5003272;28;20508;-52
2022/12/23 12:25:22;;;;;;;1.93;1.50;;;13.30;1.00;;;;;;4999625;28;20441;-53
2022/12/23 12:27:55;;;;;;;2.60;1.40;;;13.40;1.00;;;;;;5003161;28;20410;-53
2022/12/23 12:30:21;;;;;;;1.43;1.20;;;13.40;1.00;;;;;;5006865;28;20406;-55
2022/12/23 12:33:03;;;;;;;1.80;1.10;;;13.50;1.00;;;;;;5003400;28;20535;-52
2022/12/23 12:35:41;;;;;;;1.60;1.37;;;13.50;1.00;;;;;;4999327;28;20523;-55
2022/12/23 12:38:22;;;;;;;1.20;1.10;;;13.90;1.00;;;;;;4984711;28;20706;-53
2022/12/23 12:40:56;;;;;;;2.00;1.20;;;13.70;1.00;;;;;;5006316;28;20478;-54
2022/12/23 12:43:32;;;;;;;1.33;1.23;;;13.80;1.00;;;;;;4999961;28;20416;-53
2022/12/23 12:46:20;;;;;;;2.13;1.13;;;13.80;1.00;;;;;;5003605;28;20447;-55
2022/12/23 12:48:48;;;;;;;1.33;1.20;;;13.60;1.00;;;;;;5003464;28;20441;-54
2022/12/23 12:51:25;;;;;;;1.73;1.60;;;13.70;1.00;;;;;;5004249;28;20744;-52
2022/12/23 12:54:05;;;;;;;2.23;1.33;;;13.70;1.00;;;;;;4996438;28;20809;-55
2022/12/23 12:56:48;;;;;;;1.67;1.50;;;13.80;1.00;;;;;;5002939;28;20520;-54
2022/12/23 12:59:17;;;;;;;1.87;1.37;;;13.70;1.00;;;;;;4993280;28;20470;-54
2022/12/23 13:01:57;;;;;;;1.60;1.50;;;13.60;1.00;;;;;;5003032;28;20488;-52
2022/12/23 13:04:55;;;;;;;4.77;2.93;;;13.50;1.00;;;;;;5002920;28;20443;-52
2022/12/23 13:07:21;;;;;;;1.33;1.23;;;13.50;1.00;;;;;;4947800;28;20887;-53
2022/12/23 13:09:49;;;;;;;3.47;1.13;;;13.50;1.00;;;;;;4993256;28;20446;-54
2022/12/23 13:12:27;;;;;;;1.57;1.40;;;13.40;1.00;;;;;;5003164;28;20591;-53
2022/12/23 13:15:00;;;;;;;1.20;1.10;;;13.50;1.00;;;;;;4997400;28;20418;-52
2022/12/23 13:17:50;;;;;;;1.33;1.23;;;13.50;1.00;;;;;;4997716;28;20767;-52
2022/12/23 13:20:43;;;;;;;1.30;1.20;;;13.50;1.00;;;;;;4998873;28;20496;-54
2022/12/23 13:23:18;;;;;;;2.60;1.30;;;13.40;1.00;;;;;;4998113;28;20461;-53
2022/12/23 13:25:54;;;;;;;2.40;1.13;;;13.40;1.00;;;;;;5001187;28;20882;-53
2022/12/23 13:28:49;;;;;;;2.13;1.93;;;13.40;1.00;;;;;;5000258;28;20406;-53
2022/12/23 13:31:43;;;;;;;2.27;1.40;;;13.40;1.00;;;;;;4999236;28;20433;-52
2022/12/23 13:34:35;;;;;;;1.63;1.53;;;13.50;1.00;;;;;;5001507;28;21172;-54
2022/12/23 13:37:04;;;;;;;1.10;1.00;;;13.50;1.00;;;;;;5000703;28;20412;-52
2022/12/23 13:40:08;;;;;;;1.60;1.50;;;13.50;1.00;;;;;;5003412;28;20464;-53
2022/12/23 13:42:39;;;;;;;1.80;1.70;;;13.50;1.00;;;;;;5002421;28;20554;-54
2022/12/23 13:45:11;;;;;;;2.40;1.67;;;13.50;1.00;;;;;;4995495;28;20463;-55
2022/12/23 13:48:14;;;;;;;1.77;1.33;;;13.40;1.00;;;;;;4997783;28;20450;-57